createdAt,value
2023-11-12T00:00:42.522Z,1.60
2023-11-12T00:03:09.887Z,1.80
2023-11-12T00:05:37.619Z,1.77
2023-11-12T00:08:04.984Z,1.60
2023-11-12T00:10:32.486Z,1.80
2023-11-12T00:13:00.347Z,2.10
2023-11-12T00:15:28.295Z,1.50
2023-11-12T00:17:55.788Z,2.47
2023-11-12T00:20:26.063Z,1.77
2023-11-12T00:22:53.196Z,1.80
2023-11-12T00:25:20.530Z,1.47
2023-11-12T00:27:47.512Z,1.70
2023-11-12T00:30:16.943Z,1.50
2023-11-12T00:32:44.453Z,1.30
2023-11-12T00:35:12.947Z,1.60
2023-11-12T00:37:40.042Z,1.60
2023-11-12T00:40:08.325Z,1.87
2023-11-12T00:42:35.253Z,1.77
2023-11-12T00:45:02.177Z,1.57
2023-11-12T00:47:29.090Z,1.57
2023-11-12T00:49:56.016Z,1.53
2023-11-12T00:52:22.962Z,1.50
2023-11-12T00:54:49.862Z,1.60
2023-11-12T00:57:16.862Z,1.77
2023-11-12T00:59:43.732Z,1.30
2023-11-12T01:02:12.194Z,1.60
2023-11-12T01:04:39.282Z,1.63
2023-11-12T01:07:06.163Z,1.60
2023-11-12T01:09:32.889Z,1.53
2023-11-12T01:12:00.548Z,1.70
2023-11-12T01:14:28.002Z,1.50
2023-11-12T01:16:56.331Z,1.63
2023-11-12T01:19:24.082Z,1.47
2023-11-12T01:21:51.032Z,1.30
2023-11-12T01:24:18.220Z,1.60
2023-11-12T01:26:45.014Z,1.30
2023-11-12T01:29:11.910Z,1.47
2023-11-12T01:31:38.814Z,1.53
2023-11-12T01:34:08.715Z,1.33
2023-11-12T01:36:36.296Z,1.33
2023-11-12T01:39:03.935Z,1.30
2023-11-12T01:41:30.989Z,1.20
2023-11-12T01:43:58.480Z,1.50
2023-11-12T01:46:27.203Z,1.37
2023-11-12T01:48:55.765Z,0.90
2023-11-12T01:51:24.184Z,1.50
2023-11-12T01:53:52.198Z,1.40
2023-11-12T01:56:21.407Z,1.40
2023-11-12T01:58:52.529Z,1.40
2023-11-12T02:01:20.622Z,1.53
2023-11-12T02:03:48.007Z,1.70
2023-11-12T02:06:16.856Z,1.60
2023-11-12T02:08:44.099Z,1.30
2023-11-12T02:11:15.357Z,2.03
2023-11-12T02:13:44.084Z,3.10
2023-11-12T02:16:11.446Z,2.07
2023-11-12T02:18:38.447Z,1.40
2023-11-12T02:21:05.651Z,1.20
2023-11-12T02:23:37.482Z,1.30
2023-11-12T02:26:04.561Z,1.23
2023-11-12T02:28:31.414Z,1.20
2023-11-12T02:30:58.488Z,1.20
2023-11-12T02:33:29.032Z,1.30
2023-11-12T02:35:56.952Z,1.40
2023-11-12T02:38:24.757Z,1.30
2023-11-12T02:40:52.686Z,1.20
2023-11-12T02:43:19.811Z,1.60
2023-11-12T02:45:46.960Z,1.40
2023-11-12T02:48:13.928Z,1.43
2023-11-12T02:50:40.988Z,1.20
2023-11-12T02:53:08.835Z,1.60
2023-11-12T02:55:36.662Z,1.20
2023-11-12T02:58:04.757Z,1.33
2023-11-12T03:00:32.856Z,1.70
2023-11-12T03:03:02.400Z,1.70
2023-11-12T03:05:30.341Z,1.40
2023-11-12T03:07:59.337Z,1.50
2023-11-12T03:10:26.523Z,1.90
2023-11-12T03:12:53.758Z,1.30
2023-11-12T03:15:20.705Z,1.40
2023-11-12T03:17:47.610Z,1.60
2023-11-12T03:20:15.530Z,1.40
2023-11-12T03:22:42.464Z,1.60
2023-11-12T03:25:12.165Z,1.30
2023-11-12T03:27:39.945Z,1.67
2023-11-12T03:30:09.500Z,1.23
2023-11-12T03:32:36.515Z,1.40
2023-11-12T03:35:03.642Z,1.37
2023-11-12T03:37:31.251Z,1.37
2023-11-12T03:39:58.176Z,1.40
2023-11-12T03:42:25.165Z,1.20
2023-11-12T03:44:52.166Z,1.13
2023-11-12T03:47:19.251Z,1.40
2023-11-12T03:49:46.422Z,1.40
2023-11-12T03:52:13.901Z,1.40
2023-11-12T03:54:41.139Z,1.50
2023-11-12T03:57:08.163Z,1.20
2023-11-12T03:59:37.158Z,1.27
2023-11-12T04:02:05.888Z,1.30
2023-11-12T04:04:33.688Z,1.20
2023-11-12T04:07:00.784Z,1.17
2023-11-12T04:09:27.708Z,1.43
2023-11-12T04:11:54.613Z,1.33
2023-11-12T04:14:21.765Z,1.37
2023-11-12T04:16:48.697Z,1.30
2023-11-12T04:19:15.640Z,1.37
2023-11-12T04:21:42.571Z,1.40
2023-11-12T04:24:09.851Z,1.63
2023-11-12T04:26:36.783Z,1.30
2023-11-12T04:29:08.284Z,1.33
2023-11-12T04:31:37.039Z,1.20
2023-11-12T04:34:04.348Z,1.20
2023-11-12T04:36:32.179Z,1.23
2023-11-12T04:38:59.389Z,1.63
2023-11-12T04:41:27.353Z,1.43
2023-11-12T04:43:54.601Z,1.40
2023-11-12T04:46:22.776Z,1.20
2023-11-12T04:48:50.083Z,1.50
2023-11-12T04:51:20.170Z,1.30
2023-11-12T04:53:47.196Z,1.50
2023-11-12T04:56:15.247Z,1.50
2023-11-12T04:58:42.204Z,1.53
2023-11-12T05:01:09.021Z,1.60
2023-11-12T05:03:36.009Z,1.47
2023-11-12T05:06:02.950Z,1.40
2023-11-12T05:08:29.975Z,1.60
2023-11-12T05:10:57.156Z,1.50
2023-11-12T05:13:24.151Z,1.53
2023-11-12T05:15:51.154Z,2.00
2023-11-12T05:18:18.505Z,1.60
2023-11-12T05:20:45.414Z,1.57
2023-11-12T05:23:12.664Z,1.93
2023-11-12T05:25:39.613Z,2.13
2023-11-12T05:28:07.556Z,1.70
2023-11-12T05:30:34.978Z,1.77
2023-11-12T05:33:02.098Z,1.90
2023-11-12T05:35:29.119Z,1.70
2023-11-12T05:37:55.978Z,1.80
2023-11-12T05:40:22.837Z,1.67
2023-11-12T05:42:49.924Z,1.50
2023-11-12T05:45:16.874Z,1.90
2023-11-12T05:47:43.866Z,1.70
2023-11-12T05:50:13.668Z,1.70
2023-11-12T05:52:40.579Z,1.50
2023-11-12T05:55:07.818Z,1.87
2023-11-12T05:57:34.800Z,1.67
2023-11-12T06:00:01.884Z,1.73
2023-11-12T06:02:28.724Z,1.70
2023-11-12T06:04:55.630Z,1.80
2023-11-12T06:07:22.391Z,1.80
2023-11-12T06:09:49.423Z,1.53
2023-11-12T06:12:16.952Z,1.70
2023-11-12T06:14:46.215Z,1.53
2023-11-12T06:17:14.933Z,1.90
2023-11-12T06:19:41.858Z,1.70
2023-11-12T06:22:08.758Z,1.60
2023-11-12T06:24:35.636Z,1.80
2023-11-12T06:27:02.502Z,1.60
2023-11-12T06:29:29.722Z,1.70
2023-11-12T06:31:56.587Z,1.70
2023-11-12T06:34:23.986Z,1.40
2023-11-12T06:36:51.012Z,1.50
2023-11-12T06:39:17.974Z,1.63
2023-11-12T06:41:45.104Z,1.50
2023-11-12T06:44:13.642Z,1.90
2023-11-12T06:46:47.327Z,1.50
2023-11-12T06:49:15.108Z,1.87
2023-11-12T06:51:42.083Z,1.60
2023-11-12T06:54:09.754Z,1.40
2023-11-12T06:56:36.656Z,1.87
2023-11-12T06:59:03.784Z,6.50
2023-11-12T07:01:31.227Z,7.93
2023-11-12T07:03:58.497Z,10.93
2023-11-12T07:06:26.839Z,6.90
2023-11-12T07:08:53.725Z,5.13
2023-11-12T07:11:20.600Z,6.43
2023-11-12T07:13:47.671Z,4.13
2023-11-12T07:16:21.670Z,3.40
2023-11-12T07:18:54.066Z,3.10
2023-11-12T07:21:30.086Z,8.50
2023-11-12T07:23:58.153Z,9.03
2023-11-12T07:26:25.992Z,13.70
2023-11-12T07:28:54.051Z,19.70
2023-11-12T07:31:24.596Z,25.17
2023-11-12T07:33:52.199Z,8.90
2023-11-12T07:36:19.975Z,3.33
2023-11-12T07:38:46.996Z,2.17
2023-11-12T07:41:13.882Z,4.53
2023-11-12T07:43:41.498Z,12.50
2023-11-12T07:46:08.499Z,19.87
2023-11-12T07:48:36.902Z,23.80
2023-11-12T07:51:04.005Z,18.13
2023-11-12T07:53:30.877Z,10.20
2023-11-12T07:55:57.761Z,6.10
2023-11-12T07:58:24.866Z,5.50
2023-11-12T08:00:51.889Z,19.30
2023-11-12T08:03:19.590Z,21.97
2023-11-12T08:05:47.358Z,6.90
2023-11-12T08:08:14.270Z,3.10
2023-11-12T08:10:41.146Z,2.30
2023-11-12T08:13:08.253Z,3.00
2023-11-12T08:15:35.190Z,2.13
2023-11-12T08:18:02.225Z,2.10
2023-11-12T08:20:29.417Z,2.87
2023-11-12T08:22:56.322Z,10.93
2023-11-12T08:25:23.567Z,9.77
2023-11-12T08:27:50.490Z,7.67
2023-11-12T08:30:17.565Z,12.30
2023-11-12T08:32:44.833Z,10.73
2023-11-12T08:35:11.987Z,7.50
2023-11-12T08:37:38.893Z,5.57
2023-11-12T08:40:07.561Z,7.10
2023-11-12T08:42:34.789Z,7.83
2023-11-12T08:45:02.295Z,4.53
2023-11-12T08:47:29.114Z,4.13
2023-11-12T08:49:55.982Z,3.60
2023-11-12T08:52:23.181Z,2.40
2023-11-12T08:54:52.416Z,2.40
2023-11-12T08:57:19.551Z,2.50
2023-11-12T08:59:47.459Z,4.30
2023-11-12T09:02:14.303Z,3.67
2023-11-12T09:04:41.213Z,3.27
2023-11-12T09:07:08.404Z,3.50
2023-11-12T09:09:35.262Z,23.87
2023-11-12T09:12:02.140Z,12.30
2023-11-12T09:14:29.764Z,7.23
2023-11-12T09:16:56.820Z,3.57
2023-11-12T09:19:23.676Z,2.60
2023-11-12T09:21:50.669Z,3.87
2023-11-12T09:24:17.933Z,21.53
2023-11-12T09:26:46.101Z,7.50
2023-11-12T09:29:13.268Z,4.87
2023-11-12T09:31:40.134Z,2.50
2023-11-12T09:34:07.247Z,3.40
2023-11-12T09:36:35.066Z,2.20
2023-11-12T09:39:04.617Z,2.90
2023-11-12T09:41:32.780Z,3.10
2023-11-12T09:44:05.052Z,3.20
2023-11-12T09:46:33.097Z,2.20
2023-11-12T09:49:01.020Z,2.87
2023-11-12T09:51:28.685Z,6.93
2023-11-12T09:53:55.981Z,2.10
2023-11-12T09:56:26.225Z,1.67
2023-11-12T09:58:54.585Z,2.53
2023-11-12T10:01:21.859Z,5.83
2023-11-12T10:03:52.145Z,2.30
2023-11-12T10:06:23.278Z,1.63
2023-11-12T10:08:53.251Z,1.43
2023-11-12T10:11:25.154Z,1.20
2023-11-12T10:13:52.987Z,1.27
2023-11-12T10:16:28.106Z,1.27
2023-11-12T10:19:06.980Z,1.00
2023-11-12T10:21:33.849Z,1.27
2023-11-12T10:24:07.288Z,1.20
2023-11-12T10:26:37.811Z,1.20
2023-11-12T10:29:07.394Z,1.90
2023-11-12T10:31:38.713Z,1.80
2023-11-12T10:34:05.829Z,1.43
2023-11-12T10:36:32.769Z,1.50
2023-11-12T10:39:04.816Z,1.10
2023-11-12T10:41:37.952Z,1.30
2023-11-12T10:44:05.344Z,1.00
2023-11-12T10:46:39.761Z,1.60
2023-11-12T10:49:10.052Z,1.03
2023-11-12T10:51:41.461Z,1.27
2023-11-12T10:54:09.953Z,1.30
2023-11-12T10:56:37.157Z,2.47
2023-11-12T10:59:05.008Z,2.10
2023-11-12T11:01:35.354Z,1.70
2023-11-12T11:04:06.711Z,1.40
2023-11-12T11:06:34.750Z,2.00
2023-11-12T11:09:01.659Z,2.40
2023-11-12T11:11:28.647Z,1.60
2023-11-12T11:13:55.775Z,1.70
2023-11-12T11:16:48.451Z,1.37
2023-11-12T11:19:15.977Z,1.77
2023-11-12T11:21:43.753Z,1.90
2023-11-12T11:24:10.624Z,2.27
2023-11-12T11:26:43.068Z,2.30
2023-11-12T11:29:11.525Z,2.50
2023-11-12T11:31:40.225Z,3.03
2023-11-12T11:34:11.807Z,2.33
2023-11-12T11:36:41.247Z,1.73
2023-11-12T11:39:16.845Z,2.10
2023-11-12T11:41:43.778Z,2.30
2023-11-12T11:44:32.418Z,1.60
2023-11-12T11:47:13.912Z,1.60
2023-11-12T11:49:44.402Z,2.00
2023-11-12T11:52:19.178Z,2.40
2023-11-12T11:54:46.423Z,1.70
2023-11-12T11:57:18.709Z,1.57
2023-11-12T11:59:47.103Z,1.87
2023-11-12T12:02:17.516Z,1.80
2023-11-12T12:04:58.945Z,1.60
2023-11-12T12:07:32.898Z,1.60
2023-11-12T12:10:01.798Z,2.10
2023-11-12T12:12:29.368Z,2.00
2023-11-12T12:14:56.625Z,2.00
2023-11-12T12:17:24.216Z,2.50
2023-11-12T12:19:55.229Z,2.93
2023-11-12T12:22:29.065Z,2.30
2023-11-12T12:24:58.126Z,2.10
2023-11-12T12:27:25.960Z,2.00
2023-11-12T12:29:54.428Z,2.10
2023-11-12T12:32:22.305Z,2.00
2023-11-12T12:35:01.825Z,3.83
2023-11-12T12:37:32.271Z,2.50
2023-11-12T12:40:05.523Z,2.13
2023-11-12T12:42:33.761Z,1.90
2023-11-12T12:45:01.082Z,1.90
2023-11-12T12:47:29.474Z,2.03
2023-11-12T12:49:56.411Z,2.10
2023-11-12T12:52:23.317Z,2.30
2023-11-12T12:54:51.421Z,2.17
2023-11-12T12:57:18.812Z,2.80
2023-11-12T12:59:45.678Z,2.50
2023-11-12T13:02:12.582Z,2.60
2023-11-12T13:04:40.728Z,3.00
2023-11-12T13:07:08.533Z,2.60
2023-11-12T13:09:35.852Z,1.80
2023-11-12T13:12:04.852Z,1.60
2023-11-12T13:14:34.197Z,1.60
2023-11-12T13:17:02.462Z,1.20
2023-11-12T13:19:29.415Z,1.00
2023-11-12T13:22:02.326Z,1.20
2023-11-12T13:24:30.582Z,0.93
2023-11-12T13:26:58.882Z,9.17
2023-11-12T13:29:29.122Z,4.00
2023-11-12T13:32:00.469Z,7.90
2023-11-12T13:34:27.435Z,9.30
2023-11-12T13:36:54.863Z,5.70
2023-11-12T13:39:21.780Z,6.70
2023-11-12T13:41:50.728Z,5.23
2023-11-12T13:44:21.028Z,8.40
2023-11-12T13:46:52.241Z,4.50
2023-11-12T13:49:20.905Z,3.27
2023-11-12T13:51:47.859Z,2.07
2023-11-12T13:54:15.804Z,6.70
2023-11-12T13:56:42.884Z,3.73
2023-11-12T13:59:10.266Z,3.70
2023-11-12T14:01:37.252Z,2.30
2023-11-12T14:04:08.739Z,1.90
2023-11-12T14:06:36.509Z,1.53
2023-11-12T14:09:03.760Z,1.80
2023-11-12T14:11:30.507Z,4.13
2023-11-12T14:13:57.362Z,2.93
2023-11-12T14:16:24.640Z,2.67
2023-11-12T14:18:52.162Z,1.70
2023-11-12T14:21:19.953Z,2.00
2023-11-12T14:23:46.903Z,2.90
2023-11-12T14:26:14.212Z,3.60
2023-11-12T14:28:42.461Z,3.63
2023-11-12T14:31:11.988Z,3.13
2023-11-12T14:33:41.059Z,2.20
2023-11-12T14:36:11.967Z,2.20
2023-11-12T14:38:38.938Z,1.73
2023-11-12T14:41:05.895Z,2.20
2023-11-12T14:43:38.795Z,1.97
2023-11-12T14:46:05.927Z,2.10
2023-11-12T14:48:36.344Z,1.80
2023-11-12T14:51:06.946Z,1.50
2023-11-12T14:53:34.060Z,1.40
2023-11-12T14:56:00.800Z,1.63
2023-11-12T14:58:27.684Z,1.60
2023-11-12T15:00:55.764Z,1.60
2023-11-12T15:03:24.434Z,1.50
2023-11-12T15:05:51.292Z,1.83
2023-11-12T15:08:18.169Z,2.70
2023-11-12T15:10:45.014Z,3.20
2023-11-12T15:13:11.894Z,1.93
2023-11-12T15:15:38.844Z,1.63
2023-11-12T15:18:05.884Z,1.90
2023-11-12T15:20:32.847Z,3.10
2023-11-12T15:23:00.446Z,3.53
2023-11-12T15:25:29.244Z,4.10
2023-11-12T15:27:56.278Z,3.20
2023-11-12T15:30:25.832Z,2.00
2023-11-12T15:32:53.039Z,1.70
2023-11-12T15:35:20.522Z,1.70
2023-11-12T15:37:47.970Z,1.97
2023-11-12T15:40:19.880Z,1.83
2023-11-12T15:42:49.989Z,2.00
2023-11-12T15:45:17.925Z,1.93
2023-11-12T15:47:46.409Z,2.50
2023-11-12T15:50:14.382Z,2.20
2023-11-12T15:52:42.137Z,2.50
2023-11-12T15:55:10.542Z,2.97
2023-11-12T15:57:38.348Z,2.80
2023-11-12T16:00:13.748Z,2.30
2023-11-12T16:02:41.958Z,2.10
2023-11-12T16:05:09.041Z,2.50
2023-11-12T16:07:36.103Z,2.53
2023-11-12T16:10:06.013Z,2.93
2023-11-12T16:12:36.192Z,2.80
2023-11-12T16:15:05.754Z,3.10
2023-11-12T16:17:33.298Z,2.90
2023-11-12T16:20:01.515Z,1.93
2023-11-12T16:22:28.516Z,2.40
2023-11-12T16:24:55.679Z,3.33
2023-11-12T16:27:22.808Z,2.87
2023-11-12T16:29:49.954Z,2.50
2023-11-12T16:32:20.744Z,2.50
2023-11-12T16:34:47.660Z,2.40
2023-11-12T16:37:14.508Z,2.50
2023-11-12T16:39:43.001Z,2.53
2023-11-12T16:42:11.608Z,2.93
2023-11-12T16:44:38.551Z,4.40
2023-11-12T16:47:05.922Z,4.93
2023-11-12T16:49:33.005Z,4.87
2023-11-12T16:51:59.829Z,4.87
2023-11-12T16:54:26.597Z,6.83
2023-11-12T16:56:53.468Z,5.80
2023-11-12T16:59:22.060Z,8.60
2023-11-12T17:01:48.932Z,10.30
2023-11-12T17:04:15.873Z,9.57
2023-11-12T17:06:42.904Z,4.13
2023-11-12T17:09:13.364Z,1.83
2023-11-12T17:11:40.918Z,1.93
2023-11-12T17:14:08.568Z,14.80
2023-11-12T17:16:38.772Z,14.03
2023-11-12T17:19:06.308Z,21.27
2023-11-12T17:21:34.082Z,18.73
2023-11-12T17:24:01.906Z,11.57
2023-11-12T17:26:31.668Z,6.67
2023-11-12T17:28:59.838Z,5.10
2023-11-12T17:31:27.364Z,5.93
2023-11-12T17:33:57.693Z,6.57
2023-11-12T17:36:28.548Z,4.43
2023-11-12T17:38:56.313Z,2.40
2023-11-12T17:41:24.531Z,1.80
2023-11-12T17:43:52.698Z,1.67
2023-11-12T17:46:20.291Z,2.73
2023-11-12T17:48:48.751Z,1.60
2023-11-12T17:51:15.849Z,1.27
2023-11-12T17:53:42.654Z,1.13
2023-11-12T17:56:09.650Z,1.30
2023-11-12T17:58:36.520Z,1.23
2023-11-12T18:01:03.574Z,2.53
2023-11-12T18:03:37.749Z,4.60
2023-11-12T18:06:06.923Z,2.50
2023-11-12T18:08:40.347Z,2.13
2023-11-12T18:11:07.585Z,1.60
2023-11-12T18:13:37.524Z,1.50
2023-11-12T18:16:06.573Z,1.50
2023-11-12T18:18:33.609Z,2.20
2023-11-12T18:21:03.109Z,1.70
2023-11-12T18:23:30.245Z,1.67
2023-11-12T18:25:57.226Z,1.50
2023-11-12T18:28:25.320Z,1.80
2023-11-12T18:30:54.962Z,1.70
2023-11-12T18:33:21.991Z,3.37
2023-11-12T18:35:49.013Z,3.80
2023-11-12T18:38:15.857Z,2.10
2023-11-12T18:40:42.806Z,1.90
2023-11-12T18:43:12.038Z,2.23
2023-11-12T18:45:39.292Z,7.23
2023-11-12T18:48:06.740Z,5.80
2023-11-12T18:50:33.914Z,3.43
2023-11-12T18:53:00.771Z,2.80
2023-11-12T18:55:27.541Z,3.07
2023-11-12T18:57:54.604Z,1.90
2023-11-12T19:00:21.911Z,2.10
2023-11-12T19:02:52.508Z,4.80
2023-11-12T19:05:22.563Z,2.40
2023-11-12T19:07:49.957Z,2.20
2023-11-12T19:10:18.065Z,1.87
2023-11-12T19:12:45.484Z,1.50
2023-11-12T19:15:14.177Z,1.80
2023-11-12T19:17:44.567Z,1.60
2023-11-12T19:20:14.283Z,2.23
2023-11-12T19:22:42.647Z,1.80
2023-11-12T19:25:11.338Z,1.70
2023-11-12T19:27:39.939Z,1.60
2023-11-12T19:30:14.052Z,1.90
2023-11-12T19:32:43.337Z,3.70
2023-11-12T19:35:10.458Z,5.10
2023-11-12T19:37:39.314Z,7.73
2023-11-12T19:40:10.915Z,11.50
2023-11-12T19:42:38.078Z,4.40
2023-11-12T19:45:06.738Z,7.10
2023-11-12T19:47:34.407Z,6.13
2023-11-12T19:50:01.476Z,5.40
2023-11-12T19:52:29.855Z,4.20
2023-11-12T19:54:56.968Z,3.73
2023-11-12T19:57:24.147Z,3.20
2023-11-12T19:59:51.122Z,2.80
2023-11-12T20:02:18.271Z,2.47
2023-11-12T20:04:45.727Z,2.50
2023-11-12T20:07:12.890Z,2.77
2023-11-12T20:09:40.544Z,3.10
2023-11-12T20:12:07.983Z,2.97
2023-11-12T20:14:37.696Z,2.70
2023-11-12T20:17:04.640Z,2.60
2023-11-12T20:19:31.981Z,2.60
2023-11-12T20:21:59.019Z,2.70
2023-11-12T20:24:27.259Z,3.00
2023-11-12T20:26:55.535Z,2.83
2023-11-12T20:29:22.650Z,2.70
2023-11-12T20:31:54.684Z,2.33
2023-11-12T20:34:22.471Z,2.47
2023-11-12T20:36:51.338Z,2.20
2023-11-12T20:39:18.554Z,2.40
2023-11-12T20:41:47.452Z,1.97
2023-11-12T20:44:15.529Z,1.70
2023-11-12T20:46:46.950Z,1.90
2023-11-12T20:49:18.791Z,1.73
2023-11-12T20:51:47.437Z,2.13
2023-11-12T20:54:17.289Z,2.43
2023-11-12T20:56:44.800Z,2.03
2023-11-12T20:59:11.900Z,2.30
2023-11-12T21:01:39.770Z,2.87
2023-11-12T21:04:11.213Z,2.47
2023-11-12T21:06:41.507Z,2.67
2023-11-12T21:09:10.147Z,3.00
2023-11-12T21:11:41.049Z,2.80
2023-11-12T21:14:12.599Z,3.23
2023-11-12T21:16:41.252Z,2.70
2023-11-12T21:19:10.112Z,2.70
2023-11-12T21:21:39.416Z,2.97
2023-11-12T21:24:09.446Z,3.13
2023-11-12T21:26:37.003Z,2.73
2023-11-12T21:29:03.843Z,3.17
2023-11-12T21:31:30.996Z,2.43
2023-11-12T21:33:57.954Z,2.67
2023-11-12T21:36:24.904Z,2.33
2023-11-12T21:38:51.773Z,2.60
2023-11-12T21:41:19.005Z,2.23
2023-11-12T21:43:46.050Z,3.10
2023-11-12T21:46:16.703Z,2.60
2023-11-12T21:48:43.952Z,2.90
2023-11-12T21:51:10.957Z,2.53
2023-11-12T21:53:38.190Z,2.90
2023-11-12T21:56:05.807Z,2.67
2023-11-12T21:58:33.230Z,2.80
2023-11-12T22:01:01.251Z,2.80
2023-11-12T22:03:28.615Z,3.10
2023-11-12T22:05:56.236Z,3.40
2023-11-12T22:08:23.935Z,2.67
2023-11-12T22:10:51.001Z,3.37
2023-11-12T22:13:19.286Z,3.20
2023-11-12T22:15:46.788Z,3.20
2023-11-12T22:18:13.882Z,2.80
2023-11-12T22:20:41.941Z,4.20
2023-11-12T22:23:12.077Z,3.50
2023-11-12T22:25:40.266Z,3.43
2023-11-12T22:28:08.167Z,3.23
2023-11-12T22:30:37.079Z,3.50
2023-11-12T22:33:04.357Z,3.50
2023-11-12T22:35:31.255Z,3.63
2023-11-12T22:37:58.793Z,3.63
2023-11-12T22:40:25.856Z,3.07
2023-11-12T22:42:53.377Z,2.87
2023-11-12T22:45:20.715Z,3.60
2023-11-12T22:47:48.491Z,3.63
2023-11-12T22:50:18.731Z,3.10
2023-11-12T22:52:45.855Z,3.03
2023-11-12T22:55:13.376Z,2.73
2023-11-12T22:57:41.187Z,3.50
2023-11-12T23:00:40.265Z,3.20
2023-11-12T23:03:11.070Z,3.10
2023-11-12T23:05:37.992Z,2.60
2023-11-12T23:08:07.609Z,3.37
2023-11-12T23:10:38.637Z,3.03
2023-11-12T23:13:06.259Z,2.80
2023-11-12T23:15:34.828Z,2.73
2023-11-12T23:18:02.074Z,3.13
2023-11-12T23:20:29.608Z,3.20
2023-11-12T23:22:56.573Z,2.40
2023-11-12T23:25:23.446Z,2.63
2023-11-12T23:27:50.413Z,2.40
2023-11-12T23:30:17.201Z,2.87
2023-11-12T23:32:44.465Z,2.40
2023-11-12T23:35:12.087Z,2.70
2023-11-12T23:37:39.286Z,2.80
2023-11-12T23:40:08.433Z,2.30
2023-11-12T23:42:37.497Z,2.30
2023-11-12T23:45:08.454Z,1.97
2023-11-12T23:47:35.819Z,2.03
2023-11-12T23:50:02.900Z,1.97
2023-11-12T23:52:29.653Z,2.07
2023-11-12T23:54:56.792Z,2.00
2023-11-12T23:57:23.682Z,1.90
2023-11-12T23:59:51.350Z,2.00
